Aérodrome :
LOGIN :

S'inscrire | Disclaimer

   EN    FR    IT 

 










Légende :    VFR   VFR Marginal   IFR   IFR Intensif   IFR Très Intensif
Visi : 
Plafond : 
>= 8 km
>= 3000ft
5 à 8 km
1000 à 3000 ft
1500m à 5 km
500 à 1000 ft
800 à 1500m
200 à 500 ft
< 800m
< 200 ft
Symboles :   Orages  Brouillard  Fortes neiges  Fortes précipitations  Vent > 20 kt
SIGMETs :   Divers  Orages  Givrage  Turbulence  Onde Orograph.  Cendres Volcan.






- Altitude de l'aérodrome : 53 ft
- Code IATA : HAM


EDDH - Hamburg

DERNIER METAR :
  • 221050Z 30018G28KT 270V330 9999 SCT037 BKN048 10/00 Q1020 NOSIG

METARs EXPIRÉS :
  • 221020Z 29018KT 270V330 9999 SCT035 SCT048 09/01 Q1020 TEMPO 30020G30KT
  • 220950Z 30018KT 9999 FEW028 SCT039 09/00 Q1020 TEMPO 30020G30KT
  • 220920Z 30017KT 9999 FEW028 SCT038 09/M00 Q1020 TEMPO 30020G30KT
  • 220850Z 29017KT 270V340 9999 FEW027 SCT033 08/00 Q1020 TEMPO 30020G30KT
  • 220820Z 31015KT 9999 FEW028 BKN039 08/01 Q1020 TEMPO 30020G30KT

TAF TAF EDDH
Valide du 22 à 06h jusqu'au 23 à 12h UTC


220500Z 2206/2312 29012KT 9999 SCT035
BECMG 2206/2208 30015G25KT
TEMPO 2209/2217 30020G30KT
BECMG 2218/2220 29007KT
BECMG 2307/2309 30012KT
TEMPO 2310/2312 30015G25KT



MET'MAP, la Météo Aéronautique d'un coup d'oeil ! - Copyright ORBIFLY Décembre 2007 - Disclaimer

ORBIFLY MET'MAP TEAM :

Programmation & Développement : Alexandra Zaïnal
Sur une idée originale de : Baudouin d'Aumeries
Assistance à la programmation : Marc-Olivier Méhu
Soutien technique & logistique : Manuel Goepfert

Contact : metmap@orbifly.com




SOURCES & CREDITS :

   NOAA